sensor_id;sensor_type;location;lat;lon;timestamp;temperature;humidity
16846;DHT22;8539;53.188;8.696;2023-12-07T00:01:47;1.10;99.90
16846;DHT22;8539;53.188;8.696;2023-12-07T00:04:13;1.10;99.90
16846;DHT22;8539;53.188;8.696;2023-12-07T00:06:39;1.10;99.90
16846;DHT22;8539;53.188;8.696;2023-12-07T00:09:05;1.10;99.90
16846;DHT22;8539;53.188;8.696;2023-12-07T00:11:31;1.10;99.90
16846;DHT22;8539;53.188;8.696;2023-12-07T00:13:57;1.10;99.90
16846;DHT22;8539;53.188;8.696;2023-12-07T00:16:23;1.10;99.90
16846;DHT22;8539;53.188;8.696;2023-12-07T00:18:49;1.10;99.90
16846;DHT22;8539;53.188;8.696;2023-12-07T00:21:16;1.10;99.90
16846;DHT22;8539;53.188;8.696;2023-12-07T00:23:42;1.10;99.90
16846;DHT22;8539;53.188;8.696;2023-12-07T00:26:08;1.10;99.90
16846;DHT22;8539;53.188;8.696;2023-12-07T00:28:34;1.10;99.90
16846;DHT22;8539;53.188;8.696;2023-12-07T00:31:00;1.20;99.90
16846;DHT22;8539;53.188;8.696;2023-12-07T00:33:27;1.20;99.90
16846;DHT22;8539;53.188;8.696;2023-12-07T00:35:53;1.20;99.90
16846;DHT22;8539;53.188;8.696;2023-12-07T00:38:19;1.20;99.90
16846;DHT22;8539;53.188;8.696;2023-12-07T00:40:47;1.10;99.90
16846;DHT22;8539;53.188;8.696;2023-12-07T00:43:13;1.40;99.90
16846;DHT22;8539;53.188;8.696;2023-12-07T00:45:39;1.10;99.90
16846;DHT22;8539;53.188;8.696;2023-12-07T00:48:05;1.10;99.90
16846;DHT22;8539;53.188;8.696;2023-12-07T00:50:31;1.10;99.90
16846;DHT22;8539;53.188;8.696;2023-12-07T00:52:57;1.10;99.90
16846;DHT22;8539;53.188;8.696;2023-12-07T00:55:24;1.10;99.90
16846;DHT22;8539;53.188;8.696;2023-12-07T00:57:51;1.10;99.90
16846;DHT22;8539;53.188;8.696;2023-12-07T01:00:17;1.10;99.90
16846;DHT22;8539;53.188;8.696;2023-12-07T01:02:43;1.10;99.90
16846;DHT22;8539;53.188;8.696;2023-12-07T01:05:09;1.10;99.90
16846;DHT22;8539;53.188;8.696;2023-12-07T01:07:35;1.20;99.90
16846;DHT22;8539;53.188;8.696;2023-12-07T01:10:01;1.20;99.90
16846;DHT22;8539;53.188;8.696;2023-12-07T01:12:27;1.20;99.90
16846;DHT22;8539;53.188;8.696;2023-12-07T01:14:54;1.20;99.90
16846;DHT22;8539;53.188;8.696;2023-12-07T01:17:20;1.20;99.90
16846;DHT22;8539;53.188;8.696;2023-12-07T01:19:46;1.20;99.90
16846;DHT22;8539;53.188;8.696;2023-12-07T01:22:12;1.20;99.90
16846;DHT22;8539;53.188;8.696;2023-12-07T01:24:38;1.20;99.90
16846;DHT22;8539;53.188;8.696;2023-12-07T01:27:04;1.20;99.90
16846;DHT22;8539;53.188;8.696;2023-12-07T01:29:30;1.20;99.90
16846;DHT22;8539;53.188;8.696;2023-12-07T01:31:56;1.20;99.90
16846;DHT22;8539;53.188;8.696;2023-12-07T01:34:22;1.20;99.90
16846;DHT22;8539;53.188;8.696;2023-12-07T01:36:48;1.20;99.90
16846;DHT22;8539;53.188;8.696;2023-12-07T01:39:14;1.20;99.90
16846;DHT22;8539;53.188;8.696;2023-12-07T01:41:41;1.20;99.90
16846;DHT22;8539;53.188;8.696;2023-12-07T01:44:07;1.40;99.90
16846;DHT22;8539;53.188;8.696;2023-12-07T01:46:34;1.20;99.90
16846;DHT22;8539;53.188;8.696;2023-12-07T01:49:01;1.20;99.90
16846;DHT22;8539;53.188;8.696;2023-12-07T01:51:27;1.20;99.90
16846;DHT22;8539;53.188;8.696;2023-12-07T01:53:53;1.20;99.90
16846;DHT22;8539;53.188;8.696;2023-12-07T01:56:20;1.20;99.90
16846;DHT22;8539;53.188;8.696;2023-12-07T01:58:47;1.10;99.90
16846;DHT22;8539;53.188;8.696;2023-12-07T02:01:13;1.20;99.90
16846;DHT22;8539;53.188;8.696;2023-12-07T02:03:42;1.20;99.90
16846;DHT22;8539;53.188;8.696;2023-12-07T02:06:08;1.20;99.90
16846;DHT22;8539;53.188;8.696;2023-12-07T02:08:36;1.10;99.90
16846;DHT22;8539;53.188;8.696;2023-12-07T02:11:08;1.10;99.90
16846;DHT22;8539;53.188;8.696;2023-12-07T02:13:39;1.10;99.90
16846;DHT22;8539;53.188;8.696;2023-12-07T02:16:15;1.10;99.90
16846;DHT22;8539;53.188;8.696;2023-12-07T02:19:03;1.10;99.90
16846;DHT22;8539;53.188;8.696;2023-12-07T02:21:38;1.20;99.90
16846;DHT22;8539;53.188;8.696;2023-12-07T02:24:06;1.20;99.90
16846;DHT22;8539;53.188;8.696;2023-12-07T02:29:03;1.10;99.90
16846;DHT22;8539;53.188;8.696;2023-12-07T02:31:29;2.20;99.90
16846;DHT22;8539;53.188;8.696;2023-12-07T02:33:56;1.10;99.90
16846;DHT22;8539;53.188;8.696;2023-12-07T02:36:24;1.00;99.90
16846;DHT22;8539;53.188;8.696;2023-12-07T02:38:58;1.00;99.90
16846;DHT22;8539;53.188;8.696;2023-12-07T02:41:27;1.00;99.90
16846;DHT22;8539;53.188;8.696;2023-12-07T02:43:54;1.00;99.90
16846;DHT22;8539;53.188;8.696;2023-12-07T02:46:21;1.00;99.90
16846;DHT22;8539;53.188;8.696;2023-12-07T02:48:47;1.00;99.90
16846;DHT22;8539;53.188;8.696;2023-12-07T02:51:13;1.00;99.90
16846;DHT22;8539;53.188;8.696;2023-12-07T02:53:40;1.00;99.90
16846;DHT22;8539;53.188;8.696;2023-12-07T02:56:06;1.00;99.90
16846;DHT22;8539;53.188;8.696;2023-12-07T02:58:32;1.00;99.90
16846;DHT22;8539;53.188;8.696;2023-12-07T03:01:01;1.00;99.90
16846;DHT22;8539;53.188;8.696;2023-12-07T03:03:30;1.00;99.90
16846;DHT22;8539;53.188;8.696;2023-12-07T03:05:56;1.00;99.90
16846;DHT22;8539;53.188;8.696;2023-12-07T03:08:22;1.00;99.90
16846;DHT22;8539;53.188;8.696;2023-12-07T03:10:51;1.00;99.90
16846;DHT22;8539;53.188;8.696;2023-12-07T03:13:17;1.00;99.90
16846;DHT22;8539;53.188;8.696;2023-12-07T03:15:44;1.00;99.90
16846;DHT22;8539;53.188;8.696;2023-12-07T03:18:13;1.00;99.90
16846;DHT22;8539;53.188;8.696;2023-12-07T03:20:39;1.00;99.90
16846;DHT22;8539;53.188;8.696;2023-12-07T03:23:05;1.00;99.90
16846;DHT22;8539;53.188;8.696;2023-12-07T03:25:31;1.00;99.90
16846;DHT22;8539;53.188;8.696;2023-12-07T03:27:57;1.00;99.90
16846;DHT22;8539;53.188;8.696;2023-12-07T03:30:23;1.00;99.90
16846;DHT22;8539;53.188;8.696;2023-12-07T03:32:52;1.00;99.90
16846;DHT22;8539;53.188;8.696;2023-12-07T03:35:18;1.10;99.90
16846;DHT22;8539;53.188;8.696;2023-12-07T03:37:44;0.90;99.90
16846;DHT22;8539;53.188;8.696;2023-12-07T03:40:11;1.00;99.90
16846;DHT22;8539;53.188;8.696;2023-12-07T03:42:37;1.00;99.90
16846;DHT22;8539;53.188;8.696;2023-12-07T03:45:03;1.00;99.90
16846;DHT22;8539;53.188;8.696;2023-12-07T03:47:29;1.00;99.90
16846;DHT22;8539;53.188;8.696;2023-12-07T03:49:56;1.00;99.90
16846;DHT22;8539;53.188;8.696;2023-12-07T03:52:22;1.00;99.90
16846;DHT22;8539;53.188;8.696;2023-12-07T03:54:48;1.00;99.90
16846;DHT22;8539;53.188;8.696;2023-12-07T03:57:14;0.90;99.90
16846;DHT22;8539;53.188;8.696;2023-12-07T03:59:40;1.10;99.90
16846;DHT22;8539;53.188;8.696;2023-12-07T04:02:06;1.10;99.90
16846;DHT22;8539;53.188;8.696;2023-12-07T04:04:32;1.10;99.90
16846;DHT22;8539;53.188;8.696;2023-12-07T04:06:58;1.10;99.90
16846;DHT22;8539;53.188;8.696;2023-12-07T04:09:25;1.10;99.90
16846;DHT22;8539;53.188;8.696;2023-12-07T04:11:51;1.10;99.90
16846;DHT22;8539;53.188;8.696;2023-12-07T04:14:17;1.10;99.90
16846;DHT22;8539;53.188;8.696;2023-12-07T04:16:43;1.10;99.90
16846;DHT22;8539;53.188;8.696;2023-12-07T04:19:09;1.10;99.90
16846;DHT22;8539;53.188;8.696;2023-12-07T04:21:36;1.10;99.90
16846;DHT22;8539;53.188;8.696;2023-12-07T04:24:02;1.20;99.90
16846;DHT22;8539;53.188;8.696;2023-12-07T04:26:28;1.20;99.90
16846;DHT22;8539;53.188;8.696;2023-12-07T04:28:59;1.10;99.90
16846;DHT22;8539;53.188;8.696;2023-12-07T04:31:25;1.10;99.90
16846;DHT22;8539;53.188;8.696;2023-12-07T04:33:54;1.10;99.90
16846;DHT22;8539;53.188;8.696;2023-12-07T04:36:22;1.20;99.90
16846;DHT22;8539;53.188;8.696;2023-12-07T04:38:51;1.10;99.90
16846;DHT22;8539;53.188;8.696;2023-12-07T04:41:17;1.10;99.90
16846;DHT22;8539;53.188;8.696;2023-12-07T04:43:43;1.10;99.90
16846;DHT22;8539;53.188;8.696;2023-12-07T04:46:10;1.10;99.90
16846;DHT22;8539;53.188;8.696;2023-12-07T04:48:36;1.30;99.90
16846;DHT22;8539;53.188;8.696;2023-12-07T04:51:02;1.10;99.90
16846;DHT22;8539;53.188;8.696;2023-12-07T04:53:28;1.10;99.90
16846;DHT22;8539;53.188;8.696;2023-12-07T04:55:55;1.10;99.90
16846;DHT22;8539;53.188;8.696;2023-12-07T04:58:21;1.10;99.90
16846;DHT22;8539;53.188;8.696;2023-12-07T05:00:48;1.10;99.90
16846;DHT22;8539;53.188;8.696;2023-12-07T05:03:14;1.10;99.90
16846;DHT22;8539;53.188;8.696;2023-12-07T05:05:40;1.20;99.90
16846;DHT22;8539;53.188;8.696;2023-12-07T05:08:07;1.10;99.90
16846;DHT22;8539;53.188;8.696;2023-12-07T05:13:17;1.20;99.90
16846;DHT22;8539;53.188;8.696;2023-12-07T05:15:48;1.30;99.90
16846;DHT22;8539;53.188;8.696;2023-12-07T05:18:26;1.20;99.90
16846;DHT22;8539;53.188;8.696;2023-12-07T05:20:58;1.20;99.90
16846;DHT22;8539;53.188;8.696;2023-12-07T05:23:30;1.20;99.90
16846;DHT22;8539;53.188;8.696;2023-12-07T05:25:59;1.20;99.90
16846;DHT22;8539;53.188;8.696;2023-12-07T05:28:33;1.10;99.90
16846;DHT22;8539;53.188;8.696;2023-12-07T05:31:07;1.20;99.90
16846;DHT22;8539;53.188;8.696;2023-12-07T05:33:33;1.20;99.90
16846;DHT22;8539;53.188;8.696;2023-12-07T05:36:00;1.20;99.90
16846;DHT22;8539;53.188;8.696;2023-12-07T05:38:27;1.20;99.90
16846;DHT22;8539;53.188;8.696;2023-12-07T05:40:53;1.20;99.90
16846;DHT22;8539;53.188;8.696;2023-12-07T05:43:19;1.20;99.90
16846;DHT22;8539;53.188;8.696;2023-12-07T05:45:46;1.10;99.90
16846;DHT22;8539;53.188;8.696;2023-12-07T05:48:12;1.20;99.90
16846;DHT22;8539;53.188;8.696;2023-12-07T05:50:40;1.20;99.90
16846;DHT22;8539;53.188;8.696;2023-12-07T05:53:06;1.20;99.90
16846;DHT22;8539;53.188;8.696;2023-12-07T05:55:32;1.20;99.90
16846;DHT22;8539;53.188;8.696;2023-12-07T05:57:59;1.20;99.90
16846;DHT22;8539;53.188;8.696;2023-12-07T06:00:25;1.20;99.90
16846;DHT22;8539;53.188;8.696;2023-12-07T06:02:51;1.20;99.90
16846;DHT22;8539;53.188;8.696;2023-12-07T06:05:20;1.20;99.90
16846;DHT22;8539;53.188;8.696;2023-12-07T06:07:52;1.20;99.90
16846;DHT22;8539;53.188;8.696;2023-12-07T06:10:20;1.20;99.90
16846;DHT22;8539;53.188;8.696;2023-12-07T06:12:46;1.20;99.90
16846;DHT22;8539;53.188;8.696;2023-12-07T06:15:12;1.20;99.90
16846;DHT22;8539;53.188;8.696;2023-12-07T06:17:39;1.20;99.90
16846;DHT22;8539;53.188;8.696;2023-12-07T06:20:06;1.30;99.90
16846;DHT22;8539;53.188;8.696;2023-12-07T06:22:32;1.20;99.90
16846;DHT22;8539;53.188;8.696;2023-12-07T06:24:58;1.30;99.90
16846;DHT22;8539;53.188;8.696;2023-12-07T06:27:26;1.20;99.90
16846;DHT22;8539;53.188;8.696;2023-12-07T06:29:52;1.30;99.90
16846;DHT22;8539;53.188;8.696;2023-12-07T06:32:19;1.20;99.90
16846;DHT22;8539;53.188;8.696;2023-12-07T06:34:45;1.20;99.90
16846;DHT22;8539;53.188;8.696;2023-12-07T06:37:11;1.20;99.90
16846;DHT22;8539;53.188;8.696;2023-12-07T06:39:40;1.20;99.90
16846;DHT22;8539;53.188;8.696;2023-12-07T06:42:11;1.20;99.90
16846;DHT22;8539;53.188;8.696;2023-12-07T06:44:39;1.20;99.90
16846;DHT22;8539;53.188;8.696;2023-12-07T06:47:11;1.20;99.90
16846;DHT22;8539;53.188;8.696;2023-12-07T06:49:44;1.10;99.90
16846;DHT22;8539;53.188;8.696;2023-12-07T06:52:33;1.10;99.90
16846;DHT22;8539;53.188;8.696;2023-12-07T06:55:17;1.10;99.90
16846;DHT22;8539;53.188;8.696;2023-12-07T06:57:51;1.10;99.90
16846;DHT22;8539;53.188;8.696;2023-12-07T07:00:32;1.30;99.90
16846;DHT22;8539;53.188;8.696;2023-12-07T07:03:07;1.10;99.90
16846;DHT22;8539;53.188;8.696;2023-12-07T07:05:34;1.10;99.90
16846;DHT22;8539;53.188;8.696;2023-12-07T07:08:00;1.10;99.90
16846;DHT22;8539;53.188;8.696;2023-12-07T07:10:27;1.10;99.90
16846;DHT22;8539;53.188;8.696;2023-12-07T07:13:00;1.10;99.90
16846;DHT22;8539;53.188;8.696;2023-12-07T07:15:28;1.10;99.90
16846;DHT22;8539;53.188;8.696;2023-12-07T07:17:55;1.10;99.90
16846;DHT22;8539;53.188;8.696;2023-12-07T07:20:25;1.10;99.90
16846;DHT22;8539;53.188;8.696;2023-12-07T07:22:54;1.10;99.90
16846;DHT22;8539;53.188;8.696;2023-12-07T07:25:30;1.10;99.90
16846;DHT22;8539;53.188;8.696;2023-12-07T07:28:03;1.10;99.90
16846;DHT22;8539;53.188;8.696;2023-12-07T07:30:35;1.20;99.90
16846;DHT22;8539;53.188;8.696;2023-12-07T07:33:07;1.10;99.90
16846;DHT22;8539;53.188;8.696;2023-12-07T07:35:36;1.10;99.90
16846;DHT22;8539;53.188;8.696;2023-12-07T07:38:16;1.20;99.90
16846;DHT22;8539;53.188;8.696;2023-12-07T07:40:45;1.20;99.90
16846;DHT22;8539;53.188;8.696;2023-12-07T07:43:15;1.20;99.90
16846;DHT22;8539;53.188;8.696;2023-12-07T07:45:44;1.20;99.90
16846;DHT22;8539;53.188;8.696;2023-12-07T07:48:11;1.20;99.90
16846;DHT22;8539;53.188;8.696;2023-12-07T07:50:38;1.30;99.90
16846;DHT22;8539;53.188;8.696;2023-12-07T07:53:04;1.30;99.90
16846;DHT22;8539;53.188;8.696;2023-12-07T07:55:30;1.30;99.90
16846;DHT22;8539;53.188;8.696;2023-12-07T07:57:56;1.40;99.90
16846;DHT22;8539;53.188;8.696;2023-12-07T08:00:23;1.40;99.90
16846;DHT22;8539;53.188;8.696;2023-12-07T08:02:52;1.30;99.90
16846;DHT22;8539;53.188;8.696;2023-12-07T08:05:21;1.30;99.90
16846;DHT22;8539;53.188;8.696;2023-12-07T08:07:50;1.30;99.90
16846;DHT22;8539;53.188;8.696;2023-12-07T08:10:50;1.40;99.90
16846;DHT22;8539;53.188;8.696;2023-12-07T08:13:42;1.40;99.90
16846;DHT22;8539;53.188;8.696;2023-12-07T08:16:19;1.40;99.90
16846;DHT22;8539;53.188;8.696;2023-12-07T08:18:48;1.40;99.90
16846;DHT22;8539;53.188;8.696;2023-12-07T08:21:23;1.40;99.90
16846;DHT22;8539;53.188;8.696;2023-12-07T08:23:53;1.40;99.90
16846;DHT22;8539;53.188;8.696;2023-12-07T08:26:19;1.40;99.90
16846;DHT22;8539;53.188;8.696;2023-12-07T08:28:49;1.40;99.90
16846;DHT22;8539;53.188;8.696;2023-12-07T08:31:22;1.40;99.90
16846;DHT22;8539;53.188;8.696;2023-12-07T08:33:55;1.50;99.90
16846;DHT22;8539;53.188;8.696;2023-12-07T08:36:27;1.50;99.90
16846;DHT22;8539;53.188;8.696;2023-12-07T08:38:55;1.50;99.90
16846;DHT22;8539;53.188;8.696;2023-12-07T08:41:24;1.50;99.90
16846;DHT22;8539;53.188;8.696;2023-12-07T08:43:53;1.50;99.90
16846;DHT22;8539;53.188;8.696;2023-12-07T08:46:22;1.50;99.90
16846;DHT22;8539;53.188;8.696;2023-12-07T08:48:51;1.60;99.90
16846;DHT22;8539;53.188;8.696;2023-12-07T08:51:20;1.60;99.90
16846;DHT22;8539;53.188;8.696;2023-12-07T08:53:46;1.60;99.90
16846;DHT22;8539;53.188;8.696;2023-12-07T08:56:15;1.60;99.90
16846;DHT22;8539;53.188;8.696;2023-12-07T08:58:44;1.60;99.90
16846;DHT22;8539;53.188;8.696;2023-12-07T09:01:13;1.60;99.90
16846;DHT22;8539;53.188;8.696;2023-12-07T09:03:43;1.60;99.90
16846;DHT22;8539;53.188;8.696;2023-12-07T09:06:09;1.60;99.90
16846;DHT22;8539;53.188;8.696;2023-12-07T09:08:38;1.70;99.90
16846;DHT22;8539;53.188;8.696;2023-12-07T09:11:04;1.70;99.90
16846;DHT22;8539;53.188;8.696;2023-12-07T09:13:31;1.70;99.90
16846;DHT22;8539;53.188;8.696;2023-12-07T09:15:57;1.70;99.90
16846;DHT22;8539;53.188;8.696;2023-12-07T09:18:23;1.70;99.90
16846;DHT22;8539;53.188;8.696;2023-12-07T09:20:50;1.70;99.90
16846;DHT22;8539;53.188;8.696;2023-12-07T09:23:16;1.70;99.90
16846;DHT22;8539;53.188;8.696;2023-12-07T09:25:45;1.70;99.90
16846;DHT22;8539;53.188;8.696;2023-12-07T09:28:17;1.70;99.90
16846;DHT22;8539;53.188;8.696;2023-12-07T09:30:46;1.70;99.90
16846;DHT22;8539;53.188;8.696;2023-12-07T09:33:14;1.80;99.90
16846;DHT22;8539;53.188;8.696;2023-12-07T09:35:43;1.80;99.90
16846;DHT22;8539;53.188;8.696;2023-12-07T09:38:09;1.80;99.90
16846;DHT22;8539;53.188;8.696;2023-12-07T09:40:36;1.80;99.90
16846;DHT22;8539;53.188;8.696;2023-12-07T09:43:05;1.80;99.90
16846;DHT22;8539;53.188;8.696;2023-12-07T09:45:31;1.90;99.90
16846;DHT22;8539;53.188;8.696;2023-12-07T09:47:59;1.90;99.90
16846;DHT22;8539;53.188;8.696;2023-12-07T09:50:27;1.90;99.90
16846;DHT22;8539;53.188;8.696;2023-12-07T09:52:57;1.90;99.90
16846;DHT22;8539;53.188;8.696;2023-12-07T09:55:24;1.90;99.90
16846;DHT22;8539;53.188;8.696;2023-12-07T09:57:51;2.00;99.90
16846;DHT22;8539;53.188;8.696;2023-12-07T10:00:18;2.00;99.90
16846;DHT22;8539;53.188;8.696;2023-12-07T10:02:45;2.00;99.90
16846;DHT22;8539;53.188;8.696;2023-12-07T10:05:13;2.20;99.90
16846;DHT22;8539;53.188;8.696;2023-12-07T10:07:41;2.00;99.90
16846;DHT22;8539;53.188;8.696;2023-12-07T10:10:08;2.10;99.90
16846;DHT22;8539;53.188;8.696;2023-12-07T10:12:35;2.10;99.90
16846;DHT22;8539;53.188;8.696;2023-12-07T10:17:57;2.10;99.90
16846;DHT22;8539;53.188;8.696;2023-12-07T10:20:28;2.10;99.90
16846;DHT22;8539;53.188;8.696;2023-12-07T10:23:04;2.10;99.90
16846;DHT22;8539;53.188;8.696;2023-12-07T10:25:32;2.20;99.90
16846;DHT22;8539;53.188;8.696;2023-12-07T10:27:58;2.20;99.90
16846;DHT22;8539;53.188;8.696;2023-12-07T10:30:27;2.20;99.90
16846;DHT22;8539;53.188;8.696;2023-12-07T10:33:06;2.20;99.90
16846;DHT22;8539;53.188;8.696;2023-12-07T10:35:57;2.20;99.90
16846;DHT22;8539;53.188;8.696;2023-12-07T10:38:40;2.20;99.90
16846;DHT22;8539;53.188;8.696;2023-12-07T10:41:42;2.20;99.90
16846;DHT22;8539;53.188;8.696;2023-12-07T10:44:30;2.20;99.90
16846;DHT22;8539;53.188;8.696;2023-12-07T10:51:37;2.30;99.90
16846;DHT22;8539;53.188;8.696;2023-12-07T10:54:07;2.30;99.90
16846;DHT22;8539;53.188;8.696;2023-12-07T10:56:48;2.30;99.90
16846;DHT22;8539;53.188;8.696;2023-12-07T10:59:19;2.30;99.90
16846;DHT22;8539;53.188;8.696;2023-12-07T11:01:47;2.40;99.90
16846;DHT22;8539;53.188;8.696;2023-12-07T11:04:30;2.40;99.90
16846;DHT22;8539;53.188;8.696;2023-12-07T11:07:14;2.40;99.90
16846;DHT22;8539;53.188;8.696;2023-12-07T11:13:23;2.40;99.90
16846;DHT22;8539;53.188;8.696;2023-12-07T11:15:23;2.40;99.90
16846;DHT22;8539;53.188;8.696;2023-12-07T11:17:56;2.50;99.90
16846;DHT22;8539;53.188;8.696;2023-12-07T11:20:41;2.50;99.90
16846;DHT22;8539;53.188;8.696;2023-12-07T11:23:08;2.50;99.90
16846;DHT22;8539;53.188;8.696;2023-12-07T11:25:36;2.60;99.90
16846;DHT22;8539;53.188;8.696;2023-12-07T11:28:10;2.60;99.90
16846;DHT22;8539;53.188;8.696;2023-12-07T11:30:37;2.60;99.90
16846;DHT22;8539;53.188;8.696;2023-12-07T11:33:05;2.70;99.90
16846;DHT22;8539;53.188;8.696;2023-12-07T11:35:33;2.60;99.90
16846;DHT22;8539;53.188;8.696;2023-12-07T11:38:10;2.70;99.90
16846;DHT22;8539;53.188;8.696;2023-12-07T11:40:43;2.70;99.90
16846;DHT22;8539;53.188;8.696;2023-12-07T11:46:04;2.70;99.90
16846;DHT22;8539;53.188;8.696;2023-12-07T11:48:30;2.60;99.90
16846;DHT22;8539;53.188;8.696;2023-12-07T11:51:04;2.70;99.90
16846;DHT22;8539;53.188;8.696;2023-12-07T11:53:35;2.70;99.90
16846;DHT22;8539;53.188;8.696;2023-12-07T11:56:08;2.70;99.90
16846;DHT22;8539;53.188;8.696;2023-12-07T11:58:39;2.70;99.90
16846;DHT22;8539;53.188;8.696;2023-12-07T12:01:05;2.70;99.90
16846;DHT22;8539;53.188;8.696;2023-12-07T12:03:35;2.80;99.90
16846;DHT22;8539;53.188;8.696;2023-12-07T12:06:04;2.80;99.90
16846;DHT22;8539;53.188;8.696;2023-12-07T12:08:31;2.80;99.90
16846;DHT22;8539;53.188;8.696;2023-12-07T12:10:58;2.80;99.90
16846;DHT22;8539;53.188;8.696;2023-12-07T12:13:28;2.80;99.90
16846;DHT22;8539;53.188;8.696;2023-12-07T12:18:23;2.90;99.90
16846;DHT22;8539;53.188;8.696;2023-12-07T12:20:50;2.90;99.90
16846;DHT22;8539;53.188;8.696;2023-12-07T12:23:17;2.90;99.90
16846;DHT22;8539;53.188;8.696;2023-12-07T12:25:43;2.90;99.90
16846;DHT22;8539;53.188;8.696;2023-12-07T12:28:10;2.90;99.90
16846;DHT22;8539;53.188;8.696;2023-12-07T12:30:38;2.90;99.90
16846;DHT22;8539;53.188;8.696;2023-12-07T12:33:04;2.90;99.90
16846;DHT22;8539;53.188;8.696;2023-12-07T12:35:30;2.90;99.90
16846;DHT22;8539;53.188;8.696;2023-12-07T12:37:58;2.90;99.90
16846;DHT22;8539;53.188;8.696;2023-12-07T12:40:27;2.90;99.90
16846;DHT22;8539;53.188;8.696;2023-12-07T12:42:55;2.90;99.90
16846;DHT22;8539;53.188;8.696;2023-12-07T12:45:22;2.90;99.90
16846;DHT22;8539;53.188;8.696;2023-12-07T12:47:48;2.90;99.90
16846;DHT22;8539;53.188;8.696;2023-12-07T12:53:00;2.90;99.90
16846;DHT22;8539;53.188;8.696;2023-12-07T12:55:27;2.90;99.90
16846;DHT22;8539;53.188;8.696;2023-12-07T12:57:56;2.90;99.90
16846;DHT22;8539;53.188;8.696;2023-12-07T13:00:24;2.90;99.90
16846;DHT22;8539;53.188;8.696;2023-12-07T13:02:51;2.90;99.90
16846;DHT22;8539;53.188;8.696;2023-12-07T13:05:18;2.90;99.90
16846;DHT22;8539;53.188;8.696;2023-12-07T13:07:44;2.90;99.90
16846;DHT22;8539;53.188;8.696;2023-12-07T13:10:11;2.90;99.90
16846;DHT22;8539;53.188;8.696;2023-12-07T13:12:37;2.90;99.90
16846;DHT22;8539;53.188;8.696;2023-12-07T13:15:03;2.90;99.90
16846;DHT22;8539;53.188;8.696;2023-12-07T13:17:29;2.90;99.90
16846;DHT22;8539;53.188;8.696;2023-12-07T13:19:55;2.90;99.90
16846;DHT22;8539;53.188;8.696;2023-12-07T13:22:21;2.90;99.90
16846;DHT22;8539;53.188;8.696;2023-12-07T13:24:48;2.90;99.90
16846;DHT22;8539;53.188;8.696;2023-12-07T13:27:15;2.90;99.90
16846;DHT22;8539;53.188;8.696;2023-12-07T13:29:41;2.80;99.90
16846;DHT22;8539;53.188;8.696;2023-12-07T13:32:07;2.80;99.90
16846;DHT22;8539;53.188;8.696;2023-12-07T13:34:34;2.80;99.90
16846;DHT22;8539;53.188;8.696;2023-12-07T13:37:00;2.80;99.90
16846;DHT22;8539;53.188;8.696;2023-12-07T13:42:01;2.80;99.90
16846;DHT22;8539;53.188;8.696;2023-12-07T13:44:28;2.80;99.90
16846;DHT22;8539;53.188;8.696;2023-12-07T13:46:54;2.80;99.90
16846;DHT22;8539;53.188;8.696;2023-12-07T13:49:20;3.60;99.90
16846;DHT22;8539;53.188;8.696;2023-12-07T13:51:46;3.30;99.90
16846;DHT22;8539;53.188;8.696;2023-12-07T13:54:13;3.00;99.90
16846;DHT22;8539;53.188;8.696;2023-12-07T13:56:39;3.20;99.90
16846;DHT22;8539;53.188;8.696;2023-12-07T13:59:06;3.20;99.90
16846;DHT22;8539;53.188;8.696;2023-12-07T14:01:36;3.30;99.90
16846;DHT22;8539;53.188;8.696;2023-12-07T14:04:02;3.30;99.90
16846;DHT22;8539;53.188;8.696;2023-12-07T14:06:32;3.20;99.90
16846;DHT22;8539;53.188;8.696;2023-12-07T14:09:01;3.10;99.90
16846;DHT22;8539;53.188;8.696;2023-12-07T14:11:32;3.10;99.90
16846;DHT22;8539;53.188;8.696;2023-12-07T14:14:31;3.00;99.90
16846;DHT22;8539;53.188;8.696;2023-12-07T14:17:05;3.10;99.90
16846;DHT22;8539;53.188;8.696;2023-12-07T14:19:38;3.00;99.90
16846;DHT22;8539;53.188;8.696;2023-12-07T14:22:04;3.00;99.90
16846;DHT22;8539;53.188;8.696;2023-12-07T14:24:46;3.00;99.90
16846;DHT22;8539;53.188;8.696;2023-12-07T14:27:15;2.90;99.90
16846;DHT22;8539;53.188;8.696;2023-12-07T14:29:41;2.90;99.90
16846;DHT22;8539;53.188;8.696;2023-12-07T14:32:07;2.80;99.90
16846;DHT22;8539;53.188;8.696;2023-12-07T14:34:35;2.80;99.90
16846;DHT22;8539;53.188;8.696;2023-12-07T14:37:03;2.70;99.90
16846;DHT22;8539;53.188;8.696;2023-12-07T14:39:31;2.60;99.90
16846;DHT22;8539;53.188;8.696;2023-12-07T14:41:57;2.50;99.90
16846;DHT22;8539;53.188;8.696;2023-12-07T14:44:30;2.50;99.90
16846;DHT22;8539;53.188;8.696;2023-12-07T14:47:01;2.40;99.90
16846;DHT22;8539;53.188;8.696;2023-12-07T14:49:30;2.40;99.90
16846;DHT22;8539;53.188;8.696;2023-12-07T14:51:57;2.40;99.90
16846;DHT22;8539;53.188;8.696;2023-12-07T14:54:25;2.40;99.90
16846;DHT22;8539;53.188;8.696;2023-12-07T14:56:51;2.30;99.90
16846;DHT22;8539;53.188;8.696;2023-12-07T14:59:17;2.30;99.90
16846;DHT22;8539;53.188;8.696;2023-12-07T15:01:45;2.20;99.90
16846;DHT22;8539;53.188;8.696;2023-12-07T15:04:12;2.20;99.90
16846;DHT22;8539;53.188;8.696;2023-12-07T15:06:38;2.20;99.90
16846;DHT22;8539;53.188;8.696;2023-12-07T15:09:04;2.20;99.90
16846;DHT22;8539;53.188;8.696;2023-12-07T15:11:36;2.10;99.90
16846;DHT22;8539;53.188;8.696;2023-12-07T15:14:02;2.10;99.90
16846;DHT22;8539;53.188;8.696;2023-12-07T15:16:29;2.20;99.90
16846;DHT22;8539;53.188;8.696;2023-12-07T15:18:56;2.10;99.90
16846;DHT22;8539;53.188;8.696;2023-12-07T15:21:24;2.10;99.90
16846;DHT22;8539;53.188;8.696;2023-12-07T15:23:51;2.00;99.90
16846;DHT22;8539;53.188;8.696;2023-12-07T15:26:22;2.00;99.90
16846;DHT22;8539;53.188;8.696;2023-12-07T15:28:52;2.00;99.90
16846;DHT22;8539;53.188;8.696;2023-12-07T15:31:18;2.00;99.90
16846;DHT22;8539;53.188;8.696;2023-12-07T15:33:47;2.00;99.90
16846;DHT22;8539;53.188;8.696;2023-12-07T15:36:14;1.90;99.90
16846;DHT22;8539;53.188;8.696;2023-12-07T15:38:40;1.90;99.90
16846;DHT22;8539;53.188;8.696;2023-12-07T15:41:09;1.80;99.90
16846;DHT22;8539;53.188;8.696;2023-12-07T15:43:35;1.80;99.90
16846;DHT22;8539;53.188;8.696;2023-12-07T15:46:10;1.80;99.90
16846;DHT22;8539;53.188;8.696;2023-12-07T15:48:36;1.80;99.90
16846;DHT22;8539;53.188;8.696;2023-12-07T15:51:02;1.70;99.90
16846;DHT22;8539;53.188;8.696;2023-12-07T15:53:28;1.70;99.90
16846;DHT22;8539;53.188;8.696;2023-12-07T15:55:56;1.60;99.90
16846;DHT22;8539;53.188;8.696;2023-12-07T15:58:22;1.50;99.90
16846;DHT22;8539;53.188;8.696;2023-12-07T16:00:48;1.40;99.90
16846;DHT22;8539;53.188;8.696;2023-12-07T16:03:15;1.30;99.90
16846;DHT22;8539;53.188;8.696;2023-12-07T16:05:42;1.20;99.90
16846;DHT22;8539;53.188;8.696;2023-12-07T16:08:08;1.10;99.90
16846;DHT22;8539;53.188;8.696;2023-12-07T16:10:34;1.10;99.90
16846;DHT22;8539;53.188;8.696;2023-12-07T16:13:01;1.00;99.90
16846;DHT22;8539;53.188;8.696;2023-12-07T16:15:27;1.00;99.90
16846;DHT22;8539;53.188;8.696;2023-12-07T16:17:53;1.00;99.90
16846;DHT22;8539;53.188;8.696;2023-12-07T16:20:19;0.90;99.90
16846;DHT22;8539;53.188;8.696;2023-12-07T16:22:46;0.80;99.90
16846;DHT22;8539;53.188;8.696;2023-12-07T16:25:12;0.80;99.90
16846;DHT22;8539;53.188;8.696;2023-12-07T16:27:39;0.70;99.90
16846;DHT22;8539;53.188;8.696;2023-12-07T16:30:07;0.70;99.90
16846;DHT22;8539;53.188;8.696;2023-12-07T16:32:36;0.70;99.90
16846;DHT22;8539;53.188;8.696;2023-12-07T16:35:03;0.70;99.90
16846;DHT22;8539;53.188;8.696;2023-12-07T16:37:29;0.70;99.90